createdAt,value
2023-02-21T00:01:40.255Z,100554.22
2023-02-21T00:04:07.070Z,100557.13
2023-02-21T00:06:33.445Z,100552.22
2023-02-21T00:08:59.883Z,100550.81
2023-02-21T00:11:26.287Z,100545.69
2023-02-21T00:13:52.801Z,100545.09
2023-02-21T00:16:19.133Z,100551.78
2023-02-21T00:18:45.712Z,100541.69
2023-02-21T00:21:12.489Z,100543.94
2023-02-21T00:23:39.175Z,100547.06
2023-02-21T00:26:05.484Z,100548.25
2023-02-21T00:28:31.859Z,100544.25
2023-02-21T00:30:58.265Z,100539.84
2023-02-21T00:33:24.876Z,100536.31
2023-02-21T00:35:51.288Z,100537.38
2023-02-21T00:38:17.696Z,100537.84
2023-02-21T00:40:44.010Z,100531.06
2023-02-21T00:43:10.385Z,100523.13
2023-02-21T00:45:37.040Z,100531.66
2023-02-21T00:48:03.799Z,100523.59
2023-02-21T00:50:30.145Z,100516.59
2023-02-21T00:52:56.538Z,100524.06
2023-02-21T00:55:22.946Z,100519.84
2023-02-21T00:57:49.671Z,100521.25
2023-02-21T01:00:16.074Z,100510.38
2023-02-21T01:02:42.580Z,100512.50
2023-02-21T01:05:09.290Z,100514.47
2023-02-21T01:07:35.938Z,100507.00
2023-02-21T01:10:02.396Z,100501.84
2023-02-21T01:12:28.755Z,100509.09
2023-02-21T01:14:55.094Z,100502.91
2023-02-21T01:17:21.740Z,100506.19
2023-02-21T01:19:48.101Z,100494.28
2023-02-21T01:22:14.928Z,100480.72
2023-02-21T01:24:41.377Z,100482.34
2023-02-21T01:27:08.006Z,100479.06
2023-02-21T01:29:34.331Z,100477.19
2023-02-21T01:32:01.352Z,100488.19
2023-02-21T01:34:27.892Z,100483.88
2023-02-21T01:36:54.430Z,100469.38
2023-02-21T01:39:21.066Z,100486.56
2023-02-21T01:41:47.406Z,100487.94
2023-02-21T01:44:13.721Z,100479.31
2023-02-21T01:46:40.265Z,100478.16
2023-02-21T01:49:06.677Z,100478.38
2023-02-21T01:51:32.973Z,100477.31
2023-02-21T01:53:59.259Z,100474.88
2023-02-21T01:56:25.658Z,100484.78
2023-02-21T01:58:52.199Z,100478.94
2023-02-21T02:01:19.206Z,100478.84
2023-02-21T02:03:46.193Z,100467.25
2023-02-21T02:06:12.765Z,100476.38
2023-02-21T02:08:39.360Z,100477.31
2023-02-21T02:11:06.098Z,100465.06
2023-02-21T02:13:32.671Z,100455.94
2023-02-21T02:15:59.026Z,100459.69
2023-02-21T02:18:25.713Z,100476.03
2023-02-21T02:20:52.119Z,100454.53
2023-02-21T02:23:18.445Z,100455.59
2023-02-21T02:25:44.780Z,100451.03
2023-02-21T02:28:11.125Z,100428.75
2023-02-21T02:30:37.638Z,100432.69
2023-02-21T02:33:04.225Z,100419.50
2023-02-21T02:35:30.682Z,100428.38
2023-02-21T02:37:57.071Z,100412.84
2023-02-21T02:40:23.703Z,100409.78
2023-02-21T02:42:50.117Z,100421.59
2023-02-21T02:45:16.786Z,100433.16
2023-02-21T02:47:43.442Z,100427.78
2023-02-21T02:50:09.793Z,100433.97
2023-02-21T02:52:36.169Z,100444.59
2023-02-21T02:55:02.461Z,100440.75
2023-02-21T02:57:28.810Z,100448.69
2023-02-21T02:59:55.064Z,100446.13
2023-02-21T03:02:21.342Z,100451.47
2023-02-21T03:04:48.052Z,100447.66
2023-02-21T03:07:14.486Z,100452.44
2023-02-21T03:09:40.791Z,100445.66
2023-02-21T03:12:07.538Z,100442.97
2023-02-21T03:14:33.904Z,100431.16
2023-02-21T03:17:00.396Z,100432.69
2023-02-21T03:19:26.772Z,100424.97
2023-02-21T03:21:53.350Z,100424.41
2023-02-21T03:24:19.673Z,100425.69
2023-02-21T03:26:46.032Z,100427.31
2023-02-21T03:29:12.418Z,100422.63
2023-02-21T03:31:38.950Z,100409.81
2023-02-21T03:34:05.340Z,100402.19
2023-02-21T03:36:31.701Z,100418.91
2023-02-21T03:38:58.093Z,100411.31
2023-02-21T03:41:25.233Z,100411.31
2023-02-21T03:43:51.702Z,100423.59
2023-02-21T03:46:18.097Z,100414.38
2023-02-21T03:48:44.464Z,100420.88
2023-02-21T03:51:10.837Z,100430.22
2023-02-21T03:53:37.146Z,100430.72
2023-02-21T03:56:03.566Z,100440.63
2023-02-21T03:58:30.181Z,100437.13
2023-02-21T04:00:57.211Z,100449.13
2023-02-21T04:03:23.550Z,100454.78
2023-02-21T04:05:50.034Z,100442.22
2023-02-21T04:08:16.416Z,100453.19
2023-02-21T04:10:51.715Z,100460.78
2023-02-21T04:13:19.195Z,100452.28
2023-02-21T04:15:45.565Z,100442.59
2023-02-21T04:18:11.946Z,100446.34
2023-02-21T04:20:38.622Z,100455.88
2023-02-21T04:23:05.074Z,100465.53
2023-02-21T04:25:31.389Z,100456.13
2023-02-21T04:27:57.906Z,100470.25
2023-02-21T04:30:24.307Z,100463.25
2023-02-21T04:32:50.904Z,100465.09
2023-02-21T04:35:17.233Z,100467.28
2023-02-21T04:37:43.740Z,100461.47
2023-02-21T04:40:10.175Z,100468.59
2023-02-21T04:42:36.714Z,100466.16
2023-02-21T04:45:03.401Z,100474.19
2023-02-21T04:47:29.764Z,100473.53
2023-02-21T04:49:56.094Z,100473.59
2023-02-21T04:52:22.536Z,100469.72
2023-02-21T04:54:49.159Z,100474.88
2023-02-21T04:57:15.598Z,100469.63
2023-02-21T04:59:41.950Z,100476.50
2023-02-21T05:02:08.347Z,100469.22
2023-02-21T05:04:34.852Z,100479.00
2023-02-21T05:07:01.301Z,100475.81
2023-02-21T05:09:27.721Z,100469.81
2023-02-21T05:11:54.313Z,100467.34
2023-02-21T05:14:20.841Z,100471.28
2023-02-21T05:16:47.247Z,100472.31
2023-02-21T05:19:14.045Z,100469.06
2023-02-21T05:21:40.374Z,100465.78
2023-02-21T05:24:06.734Z,100478.41
2023-02-21T05:26:33.381Z,100485.16
2023-02-21T05:28:59.906Z,100481.88
2023-02-21T05:31:26.453Z,100482.47
2023-02-21T05:33:53.018Z,100482.72
2023-02-21T05:36:19.417Z,100474.09
2023-02-21T05:38:45.836Z,100481.75
2023-02-21T05:41:12.163Z,100484.09
2023-02-21T05:43:38.594Z,100486.91
2023-02-21T05:46:05.295Z,100477.78
2023-02-21T05:48:31.992Z,100484.44
2023-02-21T05:50:58.427Z,100475.81
2023-02-21T05:53:24.876Z,100489.22
2023-02-21T05:55:51.228Z,100483.25
2023-02-21T05:58:17.587Z,100492.13
2023-02-21T06:00:43.965Z,100496.22
2023-02-21T06:03:10.335Z,100494.59
2023-02-21T06:05:36.662Z,100505.56
2023-02-21T06:08:03.011Z,100504.75
2023-02-21T06:10:29.354Z,100513.84
2023-02-21T06:12:55.739Z,100515.94
2023-02-21T06:15:22.079Z,100510.31
2023-02-21T06:17:48.455Z,100510.59
2023-02-21T06:20:14.852Z,100518.63
2023-02-21T06:22:41.242Z,100515.13
2023-02-21T06:25:07.581Z,100527.72
2023-02-21T06:27:34.145Z,100532.06
2023-02-21T06:30:00.506Z,100523.63
2023-02-21T06:32:27.323Z,100529.47
2023-02-21T06:34:53.956Z,100540.56
2023-02-21T06:37:20.313Z,100545.94
2023-02-21T06:39:46.636Z,100545.09
2023-02-21T06:42:12.933Z,100559.34
2023-02-21T06:44:39.336Z,100547.78
2023-02-21T06:47:05.686Z,100565.75
2023-02-21T06:49:32.141Z,100570.16
2023-02-21T06:51:58.496Z,100572.81
2023-02-21T06:54:24.909Z,100579.50
2023-02-21T06:56:51.192Z,100574.59
2023-02-21T06:59:17.630Z,100589.66
2023-02-21T07:01:44.924Z,100593.97
2023-02-21T07:04:11.408Z,100594.88
2023-02-21T07:06:37.814Z,100595.22
2023-02-21T07:09:04.314Z,100603.63
2023-02-21T07:11:31.413Z,100600.75
2023-02-21T07:13:57.986Z,100607.28
2023-02-21T07:16:24.637Z,100621.53
2023-02-21T07:18:50.962Z,100613.28
2023-02-21T07:21:17.452Z,100624.81
2023-02-21T07:23:44.104Z,100628.31
2023-02-21T07:26:10.432Z,100636.16
2023-02-21T07:28:37.150Z,100634.28
2023-02-21T07:31:03.630Z,100624.81
2023-02-21T07:33:30.162Z,100627.28
2023-02-21T07:35:56.547Z,100625.41
2023-02-21T07:38:23.747Z,100634.28
2023-02-21T07:40:50.072Z,100636.16
2023-02-21T07:43:17.101Z,100635.31
2023-02-21T07:45:43.629Z,100638.00
2023-02-21T07:48:10.031Z,100632.63
2023-02-21T07:50:36.301Z,100639.88
2023-02-21T07:53:02.727Z,100636.38
2023-02-21T07:55:29.562Z,100645.47
2023-02-21T07:57:56.226Z,100643.16
2023-02-21T08:00:22.578Z,100646.28
2023-02-21T08:02:49.121Z,100660.53
2023-02-21T08:05:15.814Z,100653.75
2023-02-21T08:07:42.609Z,100651.06
2023-02-21T08:10:09.022Z,100645.34
2023-02-21T08:12:35.340Z,100660.44
2023-02-21T08:15:01.810Z,100663.00
2023-02-21T08:17:28.454Z,100661.09
2023-02-21T08:19:55.106Z,100662.53
2023-02-21T08:22:21.475Z,100676.16
2023-02-21T08:24:47.969Z,100669.16
2023-02-21T08:27:14.314Z,100672.06
2023-02-21T08:29:41.167Z,100673.94
2023-02-21T08:32:07.747Z,100680.72
2023-02-21T08:34:34.145Z,100690.25
2023-02-21T08:37:00.465Z,100681.91
2023-02-21T08:39:27.044Z,100680.13
2023-02-21T08:41:53.436Z,100693.78
2023-02-21T08:44:19.752Z,100699.94
2023-02-21T08:46:47.782Z,100696.53
2023-02-21T08:49:15.803Z,100702.19
2023-02-21T08:51:42.685Z,100699.44
2023-02-21T08:54:09.281Z,100708.47
2023-02-21T08:56:35.971Z,100712.63
2023-02-21T08:59:02.434Z,100711.00
2023-02-21T09:01:28.842Z,100709.19
2023-02-21T09:03:55.509Z,100702.88
2023-02-21T09:06:21.892Z,100714.84
2023-02-21T09:08:48.212Z,100709.94
2023-02-21T09:11:15.046Z,100709.94
2023-02-21T09:13:41.676Z,100709.13
2023-02-21T09:16:08.313Z,100716.56
2023-02-21T09:18:34.841Z,100703.75
2023-02-21T09:21:01.135Z,100709.53
2023-02-21T09:23:27.925Z,100706.44
2023-02-21T09:25:54.369Z,100721.94
2023-02-21T09:28:20.701Z,100725.44
2023-02-21T09:30:47.055Z,100728.31
2023-02-21T09:33:13.865Z,100725.88
2023-02-21T09:35:41.085Z,100731.47
2023-02-21T09:38:07.418Z,100724.44
2023-02-21T09:40:33.792Z,100729.00
2023-02-21T09:43:00.181Z,100735.41
2023-02-21T09:45:26.602Z,100742.06
2023-02-21T09:47:53.523Z,100747.41
2023-02-21T09:50:20.143Z,100736.69
2023-02-21T09:52:46.909Z,100732.34
2023-02-21T09:55:13.225Z,100736.91
2023-02-21T09:57:39.523Z,100747.63
2023-02-21T10:00:05.839Z,100751.13
2023-02-21T10:02:32.180Z,100746.59
2023-02-21T10:04:58.917Z,100734.22
2023-02-21T10:07:25.587Z,100736.91
2023-02-21T10:09:51.954Z,100732.34
2023-02-21T10:12:18.389Z,100741.22
2023-02-21T10:14:45.456Z,100744.72
2023-02-21T10:17:12.001Z,100741.00
2023-02-21T10:19:38.272Z,100739.38
2023-02-21T10:22:04.553Z,100745.53
2023-02-21T10:24:30.989Z,100744.72
2023-02-21T10:26:57.297Z,100752.53
2023-02-21T10:29:24.010Z,100745.31
2023-02-21T10:31:50.637Z,100746.97
2023-02-21T10:34:17.258Z,100748.84
2023-02-21T10:36:43.565Z,100752.31
2023-02-21T10:39:09.906Z,100761.19
2023-02-21T10:41:36.227Z,100770.88
2023-02-21T10:44:02.574Z,100768.19
2023-02-21T10:46:28.870Z,100763.66
2023-02-21T10:48:55.699Z,100763.66
2023-02-21T10:51:22.000Z,100768.00
2023-02-21T10:53:48.400Z,100770.66
2023-02-21T10:56:15.271Z,100768.00
2023-02-21T10:58:42.150Z,100769.84
2023-02-21T11:01:08.566Z,100769.63
2023-02-21T11:03:34.871Z,100775.00
2023-02-21T11:06:01.251Z,100770.47
2023-02-21T11:08:27.578Z,100759.72
2023-02-21T11:10:53.861Z,100764.47
2023-02-21T11:13:20.312Z,100759.72
2023-02-21T11:15:46.660Z,100757.84
2023-02-21T11:18:12.966Z,100757.84
2023-02-21T11:20:39.318Z,100759.50
2023-02-21T11:23:06.016Z,100766.72
2023-02-21T11:25:32.444Z,100760.31
2023-02-21T11:27:58.755Z,100766.72
2023-02-21T11:30:25.463Z,100763.00
2023-02-21T11:32:51.931Z,100765.09
2023-02-21T11:35:18.429Z,100767.78
2023-02-21T11:37:45.463Z,100761.34
2023-02-21T11:40:11.853Z,100761.34
2023-02-21T11:42:38.140Z,100764.03
2023-02-21T11:45:04.510Z,100763.00
2023-02-21T11:47:30.928Z,100763.00
2023-02-21T11:49:57.299Z,100764.88
2023-02-21T11:52:23.690Z,100763.59
2023-02-21T11:54:50.164Z,100758.81
2023-02-21T11:57:16.502Z,100758.81
2023-02-21T11:59:42.836Z,100758.81
2023-02-21T12:02:09.153Z,100767.94
2023-02-21T12:04:36.026Z,100760.47
2023-02-21T12:07:02.531Z,100762.94
2023-02-21T12:09:29.143Z,100773.44
2023-02-21T12:11:55.506Z,100762.94
2023-02-21T12:14:21.885Z,100766.88
2023-02-21T12:16:48.433Z,100754.88
2023-02-21T12:19:14.802Z,100760.72
2023-02-21T12:21:41.170Z,100759.88
2023-02-21T12:24:07.880Z,100751.00
2023-02-21T12:26:34.736Z,100751.81
2023-02-21T12:29:01.205Z,100741.09
2023-02-21T12:31:27.731Z,100742.72
2023-02-21T12:33:54.418Z,100736.78
2023-02-21T12:36:20.788Z,100733.03
2023-02-21T12:38:47.164Z,100741.31
2023-02-21T12:41:13.740Z,100748.31
2023-02-21T12:43:40.505Z,100742.94
2023-02-21T12:46:07.185Z,100737.78
2023-02-21T12:48:33.571Z,100728.94
2023-02-21T12:50:59.992Z,100728.13
2023-02-21T12:53:26.657Z,100730.22
2023-02-21T12:55:52.987Z,100733.69
2023-02-21T12:58:19.318Z,100742.56
2023-02-21T13:00:45.690Z,100744.22
2023-02-21T13:03:12.452Z,100746.88
2023-02-21T13:05:38.757Z,100747.72
2023-02-21T13:08:05.184Z,100749.00
2023-02-21T13:10:31.617Z,100755.00
2023-02-21T13:12:57.955Z,100750.47
2023-02-21T13:15:24.862Z,100744.72
2023-02-21T13:17:51.388Z,100747.16
2023-02-21T13:20:18.244Z,100753.38
2023-02-21T13:22:44.548Z,100752.53
2023-02-21T13:25:11.050Z,100752.78
2023-02-21T13:27:37.753Z,100760.00
2023-02-21T13:30:04.231Z,100753.00
2023-02-21T13:32:30.955Z,100755.69
2023-02-21T13:34:57.290Z,100745.16
2023-02-21T13:37:23.714Z,100751.56
2023-02-21T13:39:51.599Z,100749.69
2023-02-21T13:42:19.876Z,100744.94
2023-02-21T13:44:46.450Z,100758.72
2023-02-21T13:47:12.734Z,100760.59
2023-02-21T13:49:39.081Z,100753.31
2023-02-21T13:52:05.586Z,100769.72
2023-02-21T13:54:31.958Z,100757.75
2023-02-21T13:56:58.279Z,100768.88
2023-02-21T13:59:25.675Z,100762.16
2023-02-21T14:01:51.976Z,100764.59
2023-02-21T14:04:18.309Z,100758.09
2023-02-21T14:06:44.762Z,100774.72
2023-02-21T14:09:11.088Z,100774.44
2023-02-21T14:11:37.426Z,100773.88
2023-02-21T14:14:04.067Z,100777.09
2023-02-21T14:16:30.440Z,100782.38
2023-02-21T14:18:56.826Z,100778.56
2023-02-21T14:21:23.538Z,100775.78
2023-02-21T14:23:50.052Z,100775.94
2023-02-21T14:26:16.728Z,100777.47
2023-02-21T14:28:43.153Z,100776.56
2023-02-21T14:31:09.511Z,100777.88
2023-02-21T14:33:36.144Z,100785.50
2023-02-21T14:36:02.510Z,100790.56
2023-02-21T14:38:29.382Z,100788.63
2023-02-21T14:40:55.768Z,100782.31
2023-02-21T14:43:22.116Z,100786.75
2023-02-21T14:45:48.471Z,100794.97
2023-02-21T14:48:14.955Z,100778.94
2023-02-21T14:50:41.311Z,100792.53
2023-02-21T14:53:07.777Z,100794.53
2023-02-21T14:55:34.725Z,100793.00
2023-02-21T14:58:01.270Z,100792.06
2023-02-21T15:00:27.732Z,100787.88
2023-02-21T15:02:54.042Z,100796.91
2023-02-21T15:05:20.589Z,100798.06
2023-02-21T15:07:47.068Z,100797.34
2023-02-21T15:10:13.398Z,100803.91
2023-02-21T15:12:39.774Z,100799.94
2023-02-21T15:15:06.147Z,100804.84
2023-02-21T15:17:32.418Z,100805.41
2023-02-21T15:20:00.096Z,100815.75
2023-02-21T15:22:26.439Z,100808.25
2023-02-21T15:24:53.315Z,100815.03
2023-02-21T15:27:19.720Z,100815.63
2023-02-21T15:29:46.023Z,100818.06
2023-02-21T15:32:12.499Z,100824.91
2023-02-21T15:34:38.909Z,100821.16
2023-02-21T15:37:05.488Z,100821.16
2023-02-21T15:39:32.017Z,100816.59
2023-02-21T15:41:58.465Z,100828.19
2023-02-21T15:44:24.772Z,100822.81
2023-02-21T15:46:51.569Z,100823.59
2023-02-21T15:49:17.942Z,100826.91
2023-02-21T15:51:44.286Z,100832.88
2023-02-21T15:54:10.658Z,100828.88
2023-02-21T15:56:37.057Z,100832.50
2023-02-21T15:59:03.586Z,100834.75
2023-02-21T16:01:30.292Z,100832.38
2023-02-21T16:03:56.654Z,100834.13
2023-02-21T16:06:23.688Z,100840.44
2023-02-21T16:08:49.995Z,100843.25
2023-02-21T16:11:17.032Z,100847.13
2023-02-21T16:13:45.951Z,100857.19
2023-02-21T16:16:12.994Z,100845.44
2023-02-21T16:18:39.327Z,100851.22
2023-02-21T16:21:06.398Z,100859.41
2023-02-21T16:23:33.549Z,100853.53
2023-02-21T16:25:59.932Z,100862.53
2023-02-21T16:28:26.678Z,100870.16
2023-02-21T16:30:53.247Z,100868.06
2023-02-21T16:33:19.661Z,100864.63
2023-02-21T16:35:46.556Z,100866.03
2023-02-21T16:38:13.119Z,100879.59
2023-02-21T16:40:39.571Z,100889.09
2023-02-21T16:43:05.973Z,100887.84
2023-02-21T16:45:32.795Z,100889.25
2023-02-21T16:47:59.170Z,100895.22
2023-02-21T16:50:25.864Z,100891.22
2023-02-21T16:52:52.503Z,100894.50
2023-02-21T16:55:19.286Z,100905.88
2023-02-21T16:57:45.692Z,100905.41
2023-02-21T17:00:12.059Z,100904.09
2023-02-21T17:02:39.369Z,100910.66
2023-02-21T17:05:06.405Z,100914.75
2023-02-21T17:07:32.825Z,100915.91
2023-02-21T17:09:59.629Z,100917.06
2023-02-21T17:12:25.958Z,100923.88
2023-02-21T17:14:52.350Z,100921.50
2023-02-21T17:17:19.166Z,100925.59
2023-02-21T17:19:45.560Z,100929.13
2023-02-21T17:22:12.143Z,100937.31
2023-02-21T17:24:38.536Z,100937.91
2023-02-21T17:27:05.540Z,100939.06
2023-02-21T17:29:32.005Z,100947.25
2023-02-21T17:31:58.519Z,100950.53
2023-02-21T17:34:25.474Z,100948.97
2023-02-21T17:36:52.031Z,100953.66
2023-02-21T17:39:18.783Z,100954.81
2023-02-21T17:41:45.154Z,100951.06
2023-02-21T17:44:12.143Z,100943.78
2023-02-21T17:46:39.260Z,100956.78
2023-02-21T17:49:05.798Z,100953.03
2023-02-21T17:51:32.296Z,100961.47
2023-02-21T17:53:58.591Z,100950.78
2023-02-21T17:56:24.875Z,100954.88
2023-02-21T17:58:51.229Z,100958.16
2023-02-21T18:01:17.672Z,100958.50
2023-02-21T18:03:44.150Z,100952.25
2023-02-21T18:06:10.739Z,100967.16
2023-02-21T18:08:37.066Z,100961.28
2023-02-21T18:11:03.497Z,100967.84
2023-02-21T18:13:29.947Z,100961.13
2023-02-21T18:15:56.348Z,100963.59
2023-02-21T18:18:22.662Z,100968.50
2023-02-21T18:20:49.350Z,100966.84
2023-02-21T18:23:17.023Z,100967.19
2023-02-21T18:25:43.359Z,100975.88
2023-02-21T18:28:09.914Z,100974.56
2023-02-21T18:30:36.510Z,100968.66
2023-02-21T18:33:02.882Z,100968.19
2023-02-21T18:35:29.175Z,100977.44
2023-02-21T18:37:55.810Z,100983.41
2023-02-21T18:40:22.191Z,100976.38
2023-02-21T18:42:48.690Z,100975.31
2023-02-21T18:45:15.356Z,100981.28
2023-02-21T18:47:41.715Z,100982.09
2023-02-21T18:50:08.069Z,100991.59
2023-02-21T18:52:34.431Z,100987.84
2023-02-21T18:55:00.725Z,100985.72
2023-02-21T18:57:27.123Z,100986.31
2023-02-21T18:59:53.600Z,100989.81
2023-02-21T19:02:19.963Z,100989.81
2023-02-21T19:04:46.688Z,100997.66
2023-02-21T19:07:13.411Z,100997.66
2023-02-21T19:09:39.864Z,100997.66
2023-02-21T19:12:06.287Z,101000.38
2023-02-21T19:14:32.808Z,100993.56
2023-02-21T19:16:59.117Z,101004.16
2023-02-21T19:19:25.447Z,101012.03
2023-02-21T19:21:52.062Z,101007.66
2023-02-21T19:24:18.941Z,101013.91
2023-02-21T19:26:45.474Z,101012.25
2023-02-21T19:29:11.954Z,101006.03
2023-02-21T19:31:39.270Z,101017.91
2023-02-21T19:34:05.851Z,101005.47
2023-02-21T19:36:32.210Z,101011.66
2023-02-21T19:38:58.816Z,101016.03
2023-02-21T19:41:25.148Z,101022.25
2023-02-21T19:43:51.456Z,101014.38
2023-02-21T19:46:17.820Z,101020.63
2023-02-21T19:48:44.222Z,101018.75
2023-02-21T19:51:10.911Z,101022.25
2023-02-21T19:53:37.229Z,101022.25
2023-02-21T19:56:04.227Z,101022.00
2023-02-21T19:58:31.055Z,101022.84
2023-02-21T20:00:57.858Z,101031.50
2023-02-21T20:03:24.175Z,101029.63
2023-02-21T20:05:50.491Z,101029.63
2023-02-21T20:08:16.886Z,101028.56
2023-02-21T20:10:43.538Z,101034.81
2023-02-21T20:13:09.892Z,101034.53
2023-02-21T20:15:36.881Z,101029.97
2023-02-21T20:18:03.398Z,101039.69
2023-02-21T20:20:29.825Z,101037.81
2023-02-21T20:22:56.357Z,101037.00
2023-02-21T20:25:22.748Z,101036.19
2023-02-21T20:27:49.921Z,101033.25
2023-02-21T20:30:17.100Z,101042.41
2023-02-21T20:32:43.604Z,101039.47
2023-02-21T20:35:09.926Z,101049.22
2023-02-21T20:37:36.550Z,101041.09
2023-02-21T20:40:03.039Z,101045.69
2023-02-21T20:42:29.423Z,101048.88
2023-02-21T20:44:56.009Z,101049.47
2023-02-21T20:47:22.360Z,101045.34
2023-02-21T20:49:48.629Z,101048.66
2023-02-21T20:52:14.961Z,101049.72
2023-02-21T20:54:41.564Z,101047.81
2023-02-21T20:57:08.464Z,101041.09
2023-02-21T20:59:35.033Z,101047.00
2023-02-21T21:02:01.415Z,101047.56
2023-02-21T21:04:28.216Z,101049.47
2023-02-21T21:06:54.634Z,101054.28
2023-02-21T21:09:20.950Z,101062.16
2023-02-21T21:11:48.022Z,101063.00
2023-02-21T21:14:16.126Z,101066.75
2023-02-21T21:16:43.028Z,101065.94
2023-02-21T21:19:09.309Z,101059.47
2023-02-21T21:21:35.765Z,101067.56
2023-02-21T21:24:02.117Z,101058.88
2023-02-21T21:26:28.597Z,101067.41
2023-02-21T21:28:54.970Z,101060.84
2023-02-21T21:31:21.420Z,101065.19
2023-02-21T21:33:47.890Z,101069.28
2023-02-21T21:36:14.309Z,101066.34
2023-02-21T21:38:40.685Z,101065.28
2023-02-21T21:41:07.636Z,101067.72
2023-02-21T21:43:34.005Z,101072.34
2023-02-21T21:46:00.630Z,101071.50
2023-02-21T21:48:27.040Z,101073.38
2023-02-21T21:50:53.589Z,101078.56
2023-02-21T21:53:20.052Z,101082.94
2023-02-21T21:55:47.342Z,101088.06
2023-02-21T21:58:13.852Z,101090.22
2023-02-21T22:00:41.162Z,101081.25
2023-02-21T22:03:08.191Z,101085.03
2023-02-21T22:05:34.568Z,101086.09
2023-02-21T22:08:00.966Z,101080.94
2023-02-21T22:10:27.589Z,101093.38
2023-02-21T22:12:54.285Z,101083.66
2023-02-21T22:15:20.673Z,101089.06
2023-02-21T22:17:47.042Z,101091.16
2023-02-21T22:20:13.456Z,101094.94
2023-02-21T22:22:40.198Z,101095.78
2023-02-21T22:25:06.664Z,101095.44
2023-02-21T22:27:33.662Z,101094.84
2023-02-21T22:30:00.045Z,101095.69
2023-02-21T22:32:26.534Z,101101.56
2023-02-21T22:34:52.873Z,101104.53
2023-02-21T22:37:19.642Z,101100.41
2023-02-21T22:39:45.908Z,101104.19
2023-02-21T22:42:12.871Z,101104.44
2023-02-21T22:44:39.435Z,101103.38
2023-02-21T22:47:06.328Z,101110.09
2023-02-21T22:49:34.887Z,101109.00
2023-02-21T22:52:01.293Z,101103.03
2023-02-21T22:54:27.644Z,101098.09
2023-02-21T22:56:54.112Z,101098.59
2023-02-21T22:59:20.513Z,101103.66
2023-02-21T23:01:47.618Z,101103.09
2023-02-21T23:04:14.016Z,101102.50
2023-02-21T23:06:40.774Z,101103.25
2023-02-21T23:09:07.233Z,101100.78
2023-02-21T23:11:34.045Z,101100.78
2023-02-21T23:14:00.635Z,101105.59
2023-02-21T23:16:27.216Z,101100.44
2023-02-21T23:18:53.668Z,101106.91
2023-02-21T23:21:20.400Z,101108.81
2023-02-21T23:23:48.197Z,101094.69
2023-02-21T23:26:21.065Z,101103.03
2023-02-21T23:28:52.937Z,101100.84
2023-02-21T23:31:19.559Z,101104.56
2023-02-21T23:33:46.300Z,101101.88
2023-02-21T23:36:12.954Z,101101.31
2023-02-21T23:38:39.362Z,101093.44
2023-02-21T23:41:05.838Z,101099.91
2023-02-21T23:43:32.302Z,101098.28
2023-02-21T23:45:59.040Z,101090.41
2023-02-21T23:48:25.458Z,101098.75
2023-02-21T23:50:51.824Z,101101.47
2023-02-21T23:53:18.698Z,101099.00
2023-02-21T23:55:45.077Z,101096.75
2023-02-21T23:58:11.440Z,101093.25
